ロングイェールビーン の空港の天気 - METARとTAF

スヴァールバル空港 ( ENSB / LYR ) - スヴァールバル諸島・ヤンマイエン島 ロングイェールビーン
飛行場実況気象(Metar)
観測時間05/28 12:50 CEST (05/28 10:50 UTC)
風向・風速西 2m/s
視程10km以上
天気現象
なし
気温12℃
湿度50%
気圧1021hPa
METARENSB 281050Z 27003KT 220V310 CAVOK 12/02 Q1021 RMK WIND 1400FT 09006KT
過去の天気等 Google飛行場航空写真 Wunderground天気予報

過去48時間のMETAR

飛行場予報(TAF)
発表時間: -
28日12時 CEST ~ 28日15時 CEST に徐々に
風向・風速東南東 5m/s
28日21時 CEST ~ 28日23時 CEST に徐々に
風向・風速西南西 4m/s
TAF ENSB 2806/2906 25005KT CAVOK
BECMG 2810/2813 12010KT
BECMG 2819/2821 25008KT